Time;durP1;ratioP1;P1;durP2;ratioP2;P2;SDS_P1;SDS_P2;PMS_P1;PMS_P2;Temp;Humidity;BMP_temperature;BMP_pressure;BME280_temperature;BME280_humidity;BME280_pressure;Samples;Min_cycle;Max_cycle;Signal;HPM_P1;HPM_P2
2023/07/07 00:01:04;;;;;;;0.00;0.00;;;;;;;;;;5092528;28;20095;-83
2023/07/07 00:03:30;;;;;;;0.15;0.15;;;;;;;;;;5092028;28;20020;-84
2023/07/07 00:05:56;;;;;;;2.83;0.32;;;;;;;;;;5091762;28;20028;-83
2023/07/07 00:08:22;;;;;;;0.00;0.00;;;;;;;;;;5091945;28;20056;-83
2023/07/07 00:10:50;;;;;;;0.00;0.00;;;;;;;;;;5091893;28;20125;-83
2023/07/07 00:13:16;;;;;;;0.10;0.10;;;;;;;;;;5091898;28;20028;-83
2023/07/07 00:15:44;;;;;;;0.10;0.10;;;;;;;;;;5092367;28;20496;-83
2023/07/07 00:18:10;;;;;;;0.00;0.00;;;;;;;;;;5091772;28;20032;-83
2023/07/07 00:20:36;;;;;;;0.00;0.00;;;;;;;;;;5091649;28;20056;-83
2023/07/07 00:23:02;;;;;;;0.10;0.10;;;;;;;;;;5094260;28;20047;-83
2023/07/07 00:25:28;;;;;;;0.00;0.00;;;;;;;;;;5095952;28;20021;-83
2023/07/07 00:27:54;;;;;;;0.25;0.25;;;;;;;;;;5095611;28;20063;-83
2023/07/07 00:30:20;;;;;;;0.00;0.00;;;;;;;;;;5095950;28;20535;-83
2023/07/07 00:32:46;;;;;;;0.00;0.00;;;;;;;;;;5095578;28;20020;-83
2023/07/07 00:35:12;;;;;;;0.10;0.10;;;;;;;;;;5095241;28;20061;-83
2023/07/07 00:37:37;;;;;;;0.35;0.35;;;;;;;;;;5095525;28;20028;-83
2023/07/07 00:40:05;;;;;;;0.45;0.30;;;;;;;;;;5095506;28;20043;-83
2023/07/07 00:42:31;;;;;;;0.00;0.00;;;;;;;;;;5095873;28;20388;-83
2023/07/07 00:45:12;;;;;;;0.00;0.00;;;;;;;;;;5095552;28;20476;-83
2023/07/07 00:47:42;;;;;;;0.00;0.00;;;;;;;;;;5095350;28;20412;-83
2023/07/07 00:50:09;;;;;;;0.10;0.10;;;;;;;;;;5095022;28;20039;-82
2023/07/07 00:52:35;;;;;;;0.00;0.00;;;;;;;;;;5095369;28;20028;-83
2023/07/07 00:55:01;;;;;;;0.00;0.00;;;;;;;;;;5095669;28;20036;-82
2023/07/07 00:57:27;;;;;;;0.10;0.10;;;;;;;;;;5095313;28;20016;-83
2023/07/07 00:59:53;;;;;;;0.10;0.10;;;;;;;;;;5095077;28;20028;-83
2023/07/07 01:02:24;;;;;;;0.10;0.10;;;;;;;;;;5095004;28;20472;-83
2023/07/07 01:04:51;;;;;;;0.10;0.10;;;;;;;;;;5095063;28;20035;-83
2023/07/07 01:07:21;;;;;;;0.08;0.08;;;;;;;;;;5095490;28;20016;-83
2023/07/07 01:09:47;;;;;;;0.10;0.10;;;;;;;;;;5094841;28;20081;-83
2023/07/07 01:12:13;;;;;;;0.77;0.10;;;;;;;;;;5094873;28;20024;-83
2023/07/07 01:14:39;;;;;;;0.00;0.00;;;;;;;;;;5095298;28;20034;-83
2023/07/07 01:17:29;;;;;;;0.00;0.00;;;;;;;;;;5094759;28;20051;-82
2023/07/07 01:19:56;;;;;;;0.20;0.20;;;;;;;;;;5081238;28;20036;-83
2023/07/07 01:22:37;;;;;;;0.22;0.22;;;;;;;;;;5094574;28;20024;-82
2023/07/07 01:25:22;;;;;;;0.10;0.10;;;;;;;;;;5076608;28;20024;-82
2023/07/07 01:28:03;;;;;;;0.00;0.00;;;;;;;;;;5094466;28;20044;-82
2023/07/07 01:30:36;;;;;;;0.22;0.20;;;;;;;;;;5094365;28;20040;-82
2023/07/07 01:33:03;;;;;;;0.25;0.25;;;;;;;;;;5094192;28;20020;-83
2023/07/07 01:35:29;;;;;;;0.20;0.20;;;;;;;;;;5094029;28;20108;-83
2023/07/07 01:37:59;;;;;;;0.10;0.10;;;;;;;;;;5094754;28;20484;-83
2023/07/07 01:40:37;;;;;;;0.20;0.20;;;;;;;;;;5094311;28;20384;-82
2023/07/07 01:43:06;;;;;;;0.10;0.10;;;;;;;;;;5095021;28;20070;-82
2023/07/07 01:45:36;;;;;;;0.03;0.03;;;;;;;;;;5094450;28;20103;-83
2023/07/07 01:48:08;;;;;;;0.13;0.13;;;;;;;;;;5093840;28;20031;-83
2023/07/07 01:50:35;;;;;;;0.10;0.10;;;;;;;;;;5094463;28;20186;-82
2023/07/07 01:53:11;;;;;;;0.60;0.38;;;;;;;;;;5094249;28;20024;-83
2023/07/07 01:55:40;;;;;;;0.10;0.10;;;;;;;;;;5094067;28;20128;-83
2023/07/07 01:58:08;;;;;;;0.00;0.00;;;;;;;;;;5093992;28;20020;-82
2023/07/07 02:00:35;;;;;;;0.10;0.10;;;;;;;;;;5093960;28;20025;-83
2023/07/07 02:03:01;;;;;;;2.45;0.32;;;;;;;;;;5093522;28;20119;-82
2023/07/07 02:05:28;;;;;;;0.22;0.22;;;;;;;;;;5094428;28;20024;-82
2023/07/07 02:07:54;;;;;;;0.30;0.30;;;;;;;;;;5093852;28;20051;-83
2023/07/07 02:10:20;;;;;;;0.10;0.10;;;;;;;;;;5093750;28;20032;-82
2023/07/07 02:12:47;;;;;;;0.10;0.10;;;;;;;;;;5093786;28;20456;-83
2023/07/07 02:15:13;;;;;;;0.00;0.00;;;;;;;;;;5093499;28;20024;-82
2023/07/07 02:17:39;;;;;;;0.00;0.00;;;;;;;;;;5093359;28;20396;-82
2023/07/07 02:20:06;;;;;;;0.10;0.10;;;;;;;;;;5094058;28;20028;-83
2023/07/07 02:22:32;;;;;;;1.38;0.17;;;;;;;;;;5093450;28;20016;-83
2023/07/07 02:24:58;;;;;;;0.10;0.10;;;;;;;;;;5093546;28;20024;-82
2023/07/07 02:27:24;;;;;;;0.03;0.03;;;;;;;;;;5075159;28;20047;-83
2023/07/07 02:29:50;;;;;;;0.00;0.00;;;;;;;;;;5093605;28;20391;-83
2023/07/07 02:32:16;;;;;;;0.10;0.10;;;;;;;;;;5093034;28;20032;-83
2023/07/07 02:34:47;;;;;;;0.20;0.20;;;;;;;;;;5093426;28;20077;-82
2023/07/07 02:37:19;;;;;;;0.00;0.00;;;;;;;;;;5093790;28;20161;-82
2023/07/07 02:39:45;;;;;;;0.10;0.10;;;;;;;;;;5093125;28;20032;-82
2023/07/07 02:42:12;;;;;;;0.10;0.10;;;;;;;;;;5093375;28;20035;-83
2023/07/07 02:44:38;;;;;;;0.00;0.00;;;;;;;;;;5093039;28;20017;-82
2023/07/07 02:47:04;;;;;;;0.20;0.20;;;;;;;;;;5091964;28;20034;-83
2023/07/07 02:49:30;;;;;;;0.00;0.00;;;;;;;;;;5093116;28;20032;-83
2023/07/07 02:51:56;;;;;;;0.00;0.00;;;;;;;;;;5093309;28;20028;-83
2023/07/07 02:54:22;;;;;;;0.00;0.00;;;;;;;;;;5093045;28;20373;-83
2023/07/07 02:56:48;;;;;;;0.30;0.30;;;;;;;;;;5093020;28;20024;-83
2023/07/07 02:59:14;;;;;;;0.00;0.00;;;;;;;;;;5092827;28;20020;-82
2023/07/07 03:01:43;;;;;;;0.00;0.00;;;;;;;;;;5092532;28;20024;-83
2023/07/07 03:04:10;;;;;;;0.10;0.10;;;;;;;;;;5092846;28;20031;-83
2023/07/07 03:06:36;;;;;;;0.00;0.00;;;;;;;;;;5093172;28;20059;-83
2023/07/07 03:09:02;;;;;;;0.00;0.00;;;;;;;;;;5092693;28;20032;-83
2023/07/07 03:11:28;;;;;;;0.10;0.10;;;;;;;;;;5074509;28;20102;-82
2023/07/07 03:13:54;;;;;;;0.00;0.00;;;;;;;;;;5092429;28;20443;-83
2023/07/07 03:16:22;;;;;;;0.00;0.00;;;;;;;;;;5092536;28;20032;-83
2023/07/07 03:18:49;;;;;;;0.00;0.00;;;;;;;;;;5074852;28;20028;-83
2023/07/07 03:21:16;;;;;;;0.20;0.20;;;;;;;;;;5092590;28;20020;-83
2023/07/07 03:23:43;;;;;;;0.00;0.00;;;;;;;;;;5092360;28;20027;-82
2023/07/07 03:26:09;;;;;;;0.55;0.20;;;;;;;;;;5092245;28;20114;-83
2023/07/07 03:28:36;;;;;;;0.10;0.10;;;;;;;;;;5091860;28;20086;-83
2023/07/07 03:31:16;;;;;;;0.10;0.10;;;;;;;;;;5092599;28;20035;-83
2023/07/07 03:33:42;;;;;;;0.00;0.00;;;;;;;;;;5092785;28;20024;-83
2023/07/07 03:36:12;;;;;;;0.00;0.00;;;;;;;;;;5092394;28;20056;-83
2023/07/07 03:38:38;;;;;;;0.13;0.13;;;;;;;;;;5092225;28;20023;-83
2023/07/07 03:41:04;;;;;;;0.00;0.00;;;;;;;;;;5092614;28;20164;-83
2023/07/07 03:43:33;;;;;;;0.00;0.00;;;;;;;;;;5092110;28;20027;-82
2023/07/07 03:46:00;;;;;;;0.00;0.00;;;;;;;;;;5092374;28;20385;-82
2023/07/07 03:48:26;;;;;;;0.10;0.10;;;;;;;;;;5092503;28;20421;-82
2023/07/07 03:50:59;;;;;;;0.00;0.00;;;;;;;;;;5092124;28;20071;-82
2023/07/07 03:53:26;;;;;;;0.10;0.10;;;;;;;;;;5092158;28;20439;-82
2023/07/07 03:55:52;;;;;;;0.00;0.00;;;;;;;;;;5092502;28;20024;-83
2023/07/07 03:58:18;;;;;;;0.00;0.00;;;;;;;;;;5094797;28;20024;-82
2023/07/07 04:00:46;;;;;;;0.00;0.00;;;;;;;;;;5096398;28;20476;-83
2023/07/07 04:03:12;;;;;;;0.00;0.00;;;;;;;;;;5096651;28;20452;-83
2023/07/07 04:05:42;;;;;;;0.10;0.10;;;;;;;;;;5096179;28;20032;-82
2023/07/07 04:08:08;;;;;;;0.00;0.00;;;;;;;;;;5096183;28;20030;-82
2023/07/07 04:10:34;;;;;;;0.10;0.10;;;;;;;;;;5096058;28;20541;-82
2023/07/07 04:13:00;;;;;;;0.00;0.00;;;;;;;;;;5096157;28;20024;-82
2023/07/07 04:15:26;;;;;;;0.00;0.00;;;;;;;;;;5096072;28;20110;-82
2023/07/07 04:17:52;;;;;;;0.28;0.28;;;;;;;;;;5095888;28;20056;-82
2023/07/07 04:20:18;;;;;;;0.00;0.00;;;;;;;;;;5095986;28;20021;-83
2023/07/07 04:22:44;;;;;;;0.08;0.08;;;;;;;;;;5095976;28;20054;-83
2023/07/07 04:25:11;;;;;;;0.10;0.10;;;;;;;;;;5095730;28;20020;-83
2023/07/07 04:27:37;;;;;;;0.10;0.10;;;;;;;;;;5095441;28;20044;-82
2023/07/07 04:30:03;;;;;;;0.00;0.00;;;;;;;;;;5095739;28;20039;-83
2023/07/07 04:32:29;;;;;;;0.15;0.15;;;;;;;;;;5096164;28;20044;-82
2023/07/07 04:34:55;;;;;;;0.00;0.00;;;;;;;;;;5095898;28;20109;-83
2023/07/07 04:37:21;;;;;;;0.32;0.28;;;;;;;;;;5095711;28;20476;-82
2023/07/07 04:39:49;;;;;;;0.40;0.40;;;;;;;;;;5095323;28;20101;-82
2023/07/07 04:42:16;;;;;;;0.10;0.10;;;;;;;;;;5095392;28;20519;-82
2023/07/07 04:44:42;;;;;;;0.00;0.00;;;;;;;;;;5095471;28;20028;-83
2023/07/07 04:47:08;;;;;;;0.35;0.35;;;;;;;;;;5095814;28;20103;-82
2023/07/07 04:49:34;;;;;;;0.35;0.30;;;;;;;;;;5095402;28;20181;-82
2023/07/07 04:52:00;;;;;;;0.00;0.00;;;;;;;;;;5095288;28;20016;-83
2023/07/07 04:54:26;;;;;;;0.00;0.00;;;;;;;;;;5095180;28;20054;-83
2023/07/07 04:56:53;;;;;;;0.03;0.03;;;;;;;;;;5095471;28;20099;-82
2023/07/07 04:59:19;;;;;;;0.00;0.00;;;;;;;;;;5095016;28;20028;-83
2023/07/07 05:01:45;;;;;;;0.00;0.00;;;;;;;;;;5095174;28;20102;-82
2023/07/07 05:04:12;;;;;;;0.20;0.20;;;;;;;;;;5095235;28;20020;-83
2023/07/07 05:06:39;;;;;;;0.10;0.10;;;;;;;;;;5095205;28;20361;-83
2023/07/07 05:09:06;;;;;;;0.10;0.10;;;;;;;;;;5093478;28;20469;-82
2023/07/07 05:11:33;;;;;;;0.20;0.20;;;;;;;;;;5094728;28;20442;-83
2023/07/07 05:13:59;;;;;;;0.20;0.20;;;;;;;;;;5095272;28;20097;-82
2023/07/07 05:16:27;;;;;;;0.00;0.00;;;;;;;;;;5094949;28;20085;-83
2023/07/07 05:18:53;;;;;;;0.17;0.17;;;;;;;;;;5094953;28;20028;-82
2023/07/07 05:21:20;;;;;;;0.43;0.40;;;;;;;;;;5094804;28;20012;-83
2023/07/07 05:23:46;;;;;;;0.38;0.20;;;;;;;;;;5094864;28;20085;-82
2023/07/07 05:26:13;;;;;;;0.30;0.30;;;;;;;;;;5094377;28;20020;-82
2023/07/07 05:28:39;;;;;;;0.10;0.10;;;;;;;;;;5094265;28;20528;-83
2023/07/07 05:31:06;;;;;;;0.43;0.43;;;;;;;;;;5094795;28;20028;-83
2023/07/07 05:33:32;;;;;;;0.08;0.08;;;;;;;;;;5094928;28;20082;-82
2023/07/07 05:36:00;;;;;;;0.05;0.05;;;;;;;;;;5094497;28;20543;-83
2023/07/07 05:38:26;;;;;;;0.20;0.20;;;;;;;;;;5094187;28;20024;-83
2023/07/07 05:40:53;;;;;;;0.40;0.40;;;;;;;;;;5094102;28;20020;-82
2023/07/07 05:43:19;;;;;;;0.20;0.20;;;;;;;;;;5094354;28;20055;-83
2023/07/07 05:45:45;;;;;;;1.75;0.75;;;;;;;;;;5094252;28;20425;-83
2023/07/07 05:48:12;;;;;;;0.98;0.40;;;;;;;;;;5076041;28;20068;-83
2023/07/07 05:50:39;;;;;;;0.20;0.20;;;;;;;;;;5094125;28;20032;-83
2023/07/07 05:53:05;;;;;;;0.28;0.28;;;;;;;;;;5094040;28;20036;-83
2023/07/07 05:55:32;;;;;;;0.10;0.10;;;;;;;;;;5094224;28;20119;-83
2023/07/07 05:57:58;;;;;;;3.83;0.20;;;;;;;;;;5094184;28;20023;-83
2023/07/07 06:00:25;;;;;;;0.17;0.17;;;;;;;;;;5093894;28;20031;-83
2023/07/07 06:02:51;;;;;;;0.30;0.30;;;;;;;;;;5093978;28;20533;-83
2023/07/07 06:05:17;;;;;;;0.03;0.03;;;;;;;;;;5093952;28;20020;-83
2023/07/07 06:07:43;;;;;;;0.28;0.28;;;;;;;;;;5094103;28;20119;-83
2023/07/07 06:10:12;;;;;;;0.35;0.35;;;;;;;;;;5093324;28;20180;-83
2023/07/07 06:12:39;;;;;;;0.20;0.20;;;;;;;;;;5093770;28;20074;-83
2023/07/07 06:15:05;;;;;;;0.00;0.00;;;;;;;;;;5093771;28;20038;-83
2023/07/07 06:17:31;;;;;;;0.25;0.25;;;;;;;;;;5093767;28;20055;-83
2023/07/07 06:19:57;;;;;;;0.10;0.10;;;;;;;;;;5093749;28;20077;-83
2023/07/07 06:22:23;;;;;;;0.10;0.10;;;;;;;;;;5093018;28;20510;-83
2023/07/07 06:24:49;;;;;;;0.10;0.10;;;;;;;;;;5093665;28;20031;-83
2023/07/07 06:27:15;;;;;;;0.10;0.10;;;;;;;;;;5093351;28;20036;-83
2023/07/07 06:29:41;;;;;;;0.10;0.10;;;;;;;;;;5093791;28;20468;-83
2023/07/07 06:32:07;;;;;;;0.00;0.00;;;;;;;;;;5075156;28;20028;-83
2023/07/07 06:34:33;;;;;;;1.15;0.38;;;;;;;;;;5093255;28;20020;-83
2023/07/07 06:37:00;;;;;;;0.10;0.10;;;;;;;;;;5093110;28;20085;-86
2023/07/07 06:39:27;;;;;;;0.10;0.10;;;;;;;;;;5093611;28;20103;-86
2023/07/07 06:41:54;;;;;;;0.08;0.08;;;;;;;;;;5093982;28;20028;-88
2023/07/07 06:44:20;;;;;;;0.10;0.10;;;;;;;;;;5093800;28;20088;-88
2023/07/07 06:46:46;;;;;;;0.10;0.10;;;;;;;;;;5093707;28;20031;-88
2023/07/07 06:49:12;;;;;;;0.10;0.10;;;;;;;;;;5093457;28;20032;-88
2023/07/07 06:51:38;;;;;;;0.30;0.30;;;;;;;;;;5093761;28;20027;-88
2023/07/07 06:54:04;;;;;;;0.10;0.10;;;;;;;;;;5093559;28;20024;-88
2023/07/07 06:56:30;;;;;;;4.70;0.93;;;;;;;;;;5093409;28;20035;-87
2023/07/07 06:58:56;;;;;;;0.10;0.10;;;;;;;;;;5093321;28;20036;-87
2023/07/07 07:01:22;;;;;;;0.00;0.00;;;;;;;;;;5093387;28;20055;-88
2023/07/07 07:03:48;;;;;;;0.32;0.25;;;;;;;;;;5093505;28;20480;-88
2023/07/07 07:06:14;;;;;;;0.20;0.20;;;;;;;;;;5093092;28;20035;-87
2023/07/07 07:08:40;;;;;;;0.52;0.38;;;;;;;;;;5093182;28;20484;-87
2023/07/07 07:11:07;;;;;;;0.55;0.10;;;;;;;;;;5087111;28;20048;-88
2023/07/07 07:13:33;;;;;;;0.10;0.10;;;;;;;;;;5075399;28;20020;-84
2023/07/07 07:15:59;;;;;;;0.10;0.10;;;;;;;;;;5055319;28;20039;-84
2023/07/07 07:18:25;;;;;;;0.00;0.00;;;;;;;;;;5072158;28;20025;-84
2023/07/07 07:20:53;;;;;;;0.00;0.00;;;;;;;;;;5073430;28;20078;-84
2023/07/07 07:23:19;;;;;;;0.00;0.00;;;;;;;;;;5084083;28;20039;-84
2023/07/07 07:25:45;;;;;;;0.10;0.10;;;;;;;;;;5092897;28;20032;-84
2023/07/07 07:28:12;;;;;;;0.00;0.00;;;;;;;;;;5092233;28;20044;-84
2023/07/07 07:30:38;;;;;;;0.00;0.00;;;;;;;;;;5092488;28;20039;-84
2023/07/07 07:33:06;;;;;;;0.10;0.10;;;;;;;;;;5091743;28;20024;-84
2023/07/07 07:35:32;;;;;;;0.05;0.05;;;;;;;;;;5092244;28;20028;-84
2023/07/07 07:37:58;;;;;;;0.00;0.00;;;;;;;;;;5092396;28;20024;-84
2023/07/07 07:40:25;;;;;;;0.08;0.08;;;;;;;;;;5092114;28;20121;-84
2023/07/07 07:42:51;;;;;;;1.08;0.40;;;;;;;;;;5092652;28;20115;-84
2023/07/07 07:45:19;;;;;;;0.10;0.10;;;;;;;;;;5092176;28;20040;-84
2023/07/07 07:47:46;;;;;;;0.32;0.30;;;;;;;;;;5092032;28;20032;-84
2023/07/07 07:50:12;;;;;;;0.10;0.10;;;;;;;;;;5092094;28;20036;-84
2023/07/07 07:52:38;;;;;;;0.00;0.00;;;;;;;;;;5092133;28;20020;-84
2023/07/07 07:55:05;;;;;;;0.10;0.10;;;;;;;;;;5091965;28;20473;-84
2023/07/07 07:57:31;;;;;;;0.00;0.00;;;;;;;;;;5092470;28;20025;-84
2023/07/07 07:59:57;;;;;;;0.08;0.08;;;;;;;;;;5091785;28;20115;-84
2023/07/07 08:02:23;;;;;;;0.00;0.00;;;;;;;;;;5091962;28;20123;-84
2023/07/07 08:04:49;;;;;;;0.10;0.10;;;;;;;;;;5091648;28;20059;-84
2023/07/07 08:07:15;;;;;;;0.22;0.22;;;;;;;;;;5092027;28;20098;-84
2023/07/07 08:09:41;;;;;;;0.10;0.10;;;;;;;;;;5091965;28;20052;-84
2023/07/07 08:12:08;;;;;;;1.25;0.52;;;;;;;;;;5092653;28;20472;-84
2023/07/07 08:14:34;;;;;;;1.77;0.30;;;;;;;;;;5091986;28;20038;-83
2023/07/07 08:17:02;;;;;;;0.10;0.00;;;;;;;;;;5091880;28;20110;-84
2023/07/07 08:19:29;;;;;;;0.20;0.20;;;;;;;;;;5091613;28;20048;-84
2023/07/07 08:21:57;;;;;;;0.80;0.63;;;;;;;;;;5092147;28;20476;-84
2023/07/07 08:24:23;;;;;;;0.38;0.32;;;;;;;;;;5091861;28;20391;-84
2023/07/07 08:26:49;;;;;;;0.00;0.00;;;;;;;;;;5091784;28;20016;-84
2023/07/07 08:29:16;;;;;;;0.35;0.20;;;;;;;;;;5091346;28;20512;-84
2023/07/07 08:31:42;;;;;;;0.10;0.10;;;;;;;;;;5091770;28;20023;-83
2023/07/07 08:34:08;;;;;;;0.32;0.32;;;;;;;;;;5073309;28;20032;-84
2023/07/07 08:36:34;;;;;;;0.30;0.20;;;;;;;;;;5092183;28;20024;-84
2023/07/07 08:39:11;;;;;;;2.63;0.68;;;;;;;;;;5091658;28;20036;-83
2023/07/07 08:41:37;;;;;;;0.28;0.28;;;;;;;;;;5091470;28;20480;-84
2023/07/07 08:44:03;;;;;;;1.48;0.40;;;;;;;;;;5094341;28;20024;-84
2023/07/07 08:46:43;;;;;;;0.20;0.20;;;;;;;;;;5095194;28;20506;-84
2023/07/07 08:49:17;;;;;;;0.43;0.28;;;;;;;;;;5095053;28;20101;-84
2023/07/07 08:51:47;;;;;;;0.00;0.00;;;;;;;;;;5095450;28;20043;-84
2023/07/07 08:54:13;;;;;;;0.30;0.30;;;;;;;;;;5095423;28;20032;-84
2023/07/07 08:56:45;;;;;;;0.30;0.30;;;;;;;;;;5095645;28;20503;-84
2023/07/07 08:59:30;;;;;;;0.10;0.10;;;;;;;;;;5095022;28;20043;-84
2023/07/07 09:02:05;;;;;;;0.10;0.10;;;;;;;;;;5094753;28;20392;-85
2023/07/07 09:04:37;;;;;;;0.65;0.40;;;;;;;;;;5095461;28;20565;-84
2023/07/07 09:07:14;;;;;;;0.20;0.20;;;;;;;;;;5095102;28;20039;-84
2023/07/07 09:09:42;;;;;;;0.35;0.32;;;;;;;;;;5095010;28;20469;-84
2023/07/07 09:12:15;;;;;;;0.10;0.10;;;;;;;;;;5095111;28;20024;-84
2023/07/07 09:14:41;;;;;;;0.20;0.20;;;;;;;;;;5094955;28;20095;-84
2023/07/07 09:17:15;;;;;;;0.20;0.20;;;;;;;;;;5094436;28;20032;-85
2023/07/07 09:19:43;;;;;;;0.57;0.40;;;;;;;;;;5094819;28;20016;-84
2023/07/07 09:22:12;;;;;;;0.50;0.40;;;;;;;;;;5095045;28;20435;-84
2023/07/07 09:24:46;;;;;;;0.40;0.40;;;;;;;;;;5094793;28;20047;-84
2023/07/07 09:27:15;;;;;;;0.98;0.60;;;;;;;;;;5076275;28;20124;-84
2023/07/07 09:29:41;;;;;;;0.32;0.32;;;;;;;;;;5094349;28;20040;-84
2023/07/07 09:32:10;;;;;;;0.30;0.30;;;;;;;;;;5094349;28;20027;-84
2023/07/07 09:34:36;;;;;;;1.20;0.70;;;;;;;;;;5094918;28;20032;-84
2023/07/07 09:37:02;;;;;;;0.17;0.17;;;;;;;;;;5094528;28;20024;-84
2023/07/07 09:39:46;;;;;;;0.20;0.20;;;;;;;;;;5094469;28;20028;-84
2023/07/07 09:42:21;;;;;;;0.10;0.10;;;;;;;;;;5094431;28;20027;-84
2023/07/07 09:44:57;;;;;;;0.10;0.10;;;;;;;;;;5094832;28;20042;-84
2023/07/07 09:47:32;;;;;;;0.73;0.47;;;;;;;;;;5094093;28;20059;-84
2023/07/07 09:49:58;;;;;;;0.22;0.20;;;;;;;;;;5076109;28;20127;-84
2023/07/07 09:52:56;;;;;;;0.10;0.10;;;;;;;;;;5094241;28;20105;-84
2023/07/07 09:55:29;;;;;;;0.00;0.00;;;;;;;;;;4991954;28;20386;-84
2023/07/07 09:58:00;;;;;;;0.15;0.15;;;;;;;;;;4992211;28;20125;-84
2023/07/07 10:00:28;;;;;;;0.20;0.20;;;;;;;;;;4992055;28;20042;-84
2023/07/07 10:02:54;;;;;;;0.10;0.10;;;;;;;;;;4992324;28;20034;-84
2023/07/07 10:05:26;;;;;;;0.35;0.35;;;;;;;;;;4992338;28;20053;-84
2023/07/07 10:07:53;;;;;;;0.20;0.15;;;;;;;;;;4992781;28;20029;-83
2023/07/07 10:10:19;;;;;;;0.20;0.20;;;;;;;;;;4992080;28;20137;-84
2023/07/07 10:12:47;;;;;;;0.10;0.10;;;;;;;;;;4992553;28;20027;-84
2023/07/07 10:15:28;;;;;;;0.38;0.38;;;;;;;;;;4991792;28;20042;-84
2023/07/07 10:17:56;;;;;;;0.20;0.10;;;;;;;;;;4991958;28;20034;-84
2023/07/07 10:20:22;;;;;;;0.25;0.25;;;;;;;;;;4992471;28;20129;-84
2023/07/07 10:22:48;;;;;;;1.27;0.90;;;;;;;;;;4991932;28;20046;-84
2023/07/07 10:25:15;;;;;;;0.10;0.10;;;;;;;;;;4991878;28;20518;-84
2023/07/07 10:27:48;;;;;;;0.30;0.30;;;;;;;;;;4991583;28;20045;-84
2023/07/07 10:30:15;;;;;;;1.08;0.57;;;;;;;;;;5009144;28;20127;-84
2023/07/07 10:32:41;;;;;;;0.15;0.15;;;;;;;;;;5073415;28;20028;-84
2023/07/07 10:35:08;;;;;;;0.30;0.30;;;;;;;;;;5073054;28;20492;-84
2023/07/07 10:37:39;;;;;;;0.25;0.25;;;;;;;;;;5073198;28;20021;-85
2023/07/07 10:40:06;;;;;;;0.93;0.93;;;;;;;;;;5073059;28;20422;-84
2023/07/07 10:42:33;;;;;;;0.30;0.30;;;;;;;;;;5073052;28;20021;-84
2023/07/07 10:45:00;;;;;;;0.17;0.17;;;;;;;;;;5072895;28;20028;-84
2023/07/07 10:47:28;;;;;;;0.43;0.43;;;;;;;;;;5072993;28;20028;-85
2023/07/07 10:49:56;;;;;;;0.28;0.28;;;;;;;;;;5072811;28;20039;-85
2023/07/07 10:52:22;;;;;;;0.47;0.47;;;;;;;;;;5072738;28;20056;-84
2023/07/07 10:55:02;;;;;;;0.98;0.98;;;;;;;;;;5073118;28;20064;-83
2023/07/07 10:57:45;;;;;;;0.50;0.50;;;;;;;;;;5072537;28;20029;-84
2023/07/07 11:00:29;;;;;;;0.20;0.20;;;;;;;;;;5089328;28;20126;-85
2023/07/07 11:03:24;;;;;;;0.10;0.10;;;;;;;;;;5093104;28;20028;-84
2023/07/07 11:05:57;;;;;;;0.90;0.43;;;;;;;;;;5092472;28;20032;-85
2023/07/07 11:08:41;;;;;;;1.20;1.10;;;;;;;;;;5092534;28;20039;-84
2023/07/07 11:11:12;;;;;;;0.20;0.20;;;;;;;;;;5092998;28;20404;-84
2023/07/07 11:13:56;;;;;;;0.73;0.38;;;;;;;;;;5092196;28;20026;-84
2023/07/07 11:16:29;;;;;;;0.30;0.22;;;;;;;;;;5092573;28;20054;-84
2023/07/07 11:18:55;;;;;;;2.67;1.25;;;;;;;;;;5092651;28;20032;-85
2023/07/07 11:21:27;;;;;;;1.08;0.75;;;;;;;;;;5093000;28;20117;-84
2023/07/07 11:23:53;;;;;;;0.28;0.28;;;;;;;;;;5092564;28;20043;-84
2023/07/07 11:26:37;;;;;;;0.20;0.20;;;;;;;;;;5092399;28;20055;-85
2023/07/07 11:29:26;;;;;;;0.20;0.20;;;;;;;;;;5091808;28;20056;-85
2023/07/07 11:31:52;;;;;;;1.23;0.85;;;;;;;;;;5079464;28;20111;-84
2023/07/07 11:34:43;;;;;;;0.30;0.30;;;;;;;;;;5092660;28;20024;-85
2023/07/07 11:37:27;;;;;;;3.45;0.93;;;;;;;;;;5092724;28;20024;-83
2023/07/07 11:40:05;;;;;;;1.88;0.63;;;;;;;;;;5092342;28;20024;-84
2023/07/07 11:42:31;;;;;;;0.20;0.20;;;;;;;;;;5091901;28;20034;-85
2023/07/07 11:45:00;;;;;;;4.13;1.30;;;;;;;;;;5092356;28;20099;-84
2023/07/07 11:47:45;;;;;;;0.40;0.40;;;;;;;;;;5092301;28;20118;-85
2023/07/07 11:50:19;;;;;;;0.35;0.35;;;;;;;;;;5092358;28;20046;-85
2023/07/07 11:52:45;;;;;;;0.60;0.60;;;;;;;;;;5092738;28;20030;-85
2023/07/07 11:55:26;;;;;;;0.30;0.30;;;;;;;;;;5092152;28;20021;-84
2023/07/07 11:58:03;;;;;;;0.25;0.25;;;;;;;;;;5092215;28;20369;-84
2023/07/07 12:00:36;;;;;;;1.05;0.75;;;;;;;;;;5092043;28;20396;-84
2023/07/07 12:03:05;;;;;;;0.50;0.50;;;;;;;;;;5092119;28;20032;-85
2023/07/07 12:05:33;;;;;;;0.85;0.43;;;;;;;;;;5091994;28;20028;-85
2023/07/07 12:08:04;;;;;;;0.20;0.20;;;;;;;;;;5092312;28;20118;-85
2023/07/07 12:10:36;;;;;;;0.20;0.20;;;;;;;;;;5091580;28;20067;-85
2023/07/07 12:13:10;;;;;;;0.10;0.10;;;;;;;;;;5092131;28;20514;-85
2023/07/07 12:15:37;;;;;;;0.98;0.90;;;;;;;;;;5092029;28;20036;-85
2023/07/07 12:18:11;;;;;;;0.43;0.43;;;;;;;;;;5093022;28;20031;-84
2023/07/07 12:20:39;;;;;;;0.60;0.60;;;;;;;;;;5096225;28;20054;-85
2023/07/07 12:23:09;;;;;;;0.68;0.68;;;;;;;;;;5095963;28;20027;-85
2023/07/07 12:25:35;;;;;;;0.45;0.45;;;;;;;;;;5077419;28;20043;-85
2023/07/07 12:28:02;;;;;;;0.17;0.17;;;;;;;;;;5095652;28;20040;-85
2023/07/07 12:30:29;;;;;;;0.63;0.63;;;;;;;;;;5095554;28;20036;-84
2023/07/07 12:32:55;;;;;;;0.35;0.35;;;;;;;;;;5095887;28;20021;-85
2023/07/07 12:35:36;;;;;;;1.50;0.50;;;;;;;;;;5095734;28;20503;-85
2023/07/07 12:38:15;;;;;;;0.10;0.10;;;;;;;;;;5095564;28;20469;-85
2023/07/07 12:40:44;;;;;;;0.88;0.45;;;;;;;;;;5095678;28;20126;-85
2023/07/07 12:43:21;;;;;;;3.47;0.80;;;;;;;;;;5095547;28;20024;-85
2023/07/07 12:45:48;;;;;;;0.35;0.10;;;;;;;;;;5095578;28;20039;-85
2023/07/07 12:48:26;;;;;;;0.20;0.20;;;;;;;;;;5095464;28;20384;-85
2023/07/07 12:50:57;;;;;;;0.22;0.22;;;;;;;;;;5095726;28;20039;-85
2023/07/07 12:53:26;;;;;;;8.07;0.75;;;;;;;;;;5095121;28;20741;-85
2023/07/07 12:56:07;;;;;;;0.35;0.35;;;;;;;;;;5095476;28;20032;-85
2023/07/07 12:58:39;;;;;;;0.35;0.35;;;;;;;;;;5095132;28;20016;-85
2023/07/07 13:01:14;;;;;;;2.63;0.90;;;;;;;;;;5095246;28;20024;-85
2023/07/07 13:03:59;;;;;;;0.35;0.30;;;;;;;;;;5095101;28;20048;-85
2023/07/07 13:06:26;;;;;;;0.38;0.38;;;;;;;;;;5094993;28;20024;-85
2023/07/07 13:09:16;;;;;;;0.40;0.40;;;;;;;;;;5094881;28;20024;-85
2023/07/07 13:11:46;;;;;;;0.20;0.20;;;;;;;;;;5082224;28;20088;-85
2023/07/07 13:14:32;;;;;;;0.30;0.30;;;;;;;;;;5095026;28;20024;-85
2023/07/07 13:17:00;;;;;;;0.60;0.60;;;;;;;;;;5094921;28;20108;-85
2023/07/07 13:19:26;;;;;;;0.40;0.28;;;;;;;;;;5095343;28;20024;-85
2023/07/07 13:21:53;;;;;;;0.35;0.35;;;;;;;;;;5094579;28;20024;-85
2023/07/07 13:24:20;;;;;;;0.40;0.40;;;;;;;;;;5094351;28;20067;-85
2023/07/07 13:26:46;;;;;;;0.38;0.38;;;;;;;;;;5094826;28;20028;-85
2023/07/07 13:29:12;;;;;;;0.70;0.70;;;;;;;;;;5094211;28;20048;-85
2023/07/07 13:31:39;;;;;;;0.30;0.30;;;;;;;;;;5094343;28;20111;-85
2023/07/07 13:34:06;;;;;;;0.40;0.40;;;;;;;;;;5094754;28;20031;-85
2023/07/07 13:36:32;;;;;;;0.38;0.38;;;;;;;;;;5094904;28;20047;-85
2023/07/07 13:38:58;;;;;;;5.75;0.90;;;;;;;;;;5093988;28;20050;-84
2023/07/07 13:41:25;;;;;;;0.10;0.10;;;;;;;;;;5094446;28;20480;-85
2023/07/07 13:43:55;;;;;;;0.30;0.30;;;;;;;;;;5094829;28;20046;-85
2023/07/07 13:46:25;;;;;;;3.40;0.57;;;;;;;;;;5094336;28;20024;-85
2023/07/07 13:48:53;;;;;;;0.30;0.30;;;;;;;;;;5094348;28;20046;-85
2023/07/07 13:51:22;;;;;;;1.75;0.40;;;;;;;;;;5094341;28;20031;-85
2023/07/07 13:53:48;;;;;;;0.40;0.40;;;;;;;;;;5094193;28;20034;-85
2023/07/07 13:56:14;;;;;;;0.30;0.30;;;;;;;;;;5094281;28;20035;-85
2023/07/07 13:58:44;;;;;;;0.10;0.10;;;;;;;;;;5094313;28;20480;-85
2023/07/07 14:01:24;;;;;;;0.47;0.47;;;;;;;;;;5094078;28;20380;-85
2023/07/07 14:03:52;;;;;;;1.38;0.93;;;;;;;;;;5093967;28;20046;-85
2023/07/07 14:06:19;;;;;;;0.43;0.43;;;;;;;;;;5093827;28;20020;-85
2023/07/07 14:08:45;;;;;;;0.50;0.45;;;;;;;;;;5094321;28;20028;-84
2023/07/07 14:11:24;;;;;;;0.55;0.55;;;;;;;;;;5093838;28;20086;-85
2023/07/07 14:13:53;;;;;;;2.85;1.50;;;;;;;;;;5093751;28;20028;-85
2023/07/07 14:16:22;;;;;;;0.65;0.47;;;;;;;;;;5094134;28;20511;-84
2023/07/07 14:18:56;;;;;;;1.08;0.93;;;;;;;;;;5093612;28;20024;-85
2023/07/07 14:21:22;;;;;;;4.57;0.65;;;;;;;;;;5093444;28;20492;-85
2023/07/07 14:23:50;;;;;;;0.45;0.45;;;;;;;;;;5093926;28;20020;-85
2023/07/07 14:26:17;;;;;;;0.82;0.80;;;;;;;;;;5093571;28;20039;-85
2023/07/07 14:28:43;;;;;;;0.22;0.22;;;;;;;;;;5093434;28;20052;-85
2023/07/07 14:31:11;;;;;;;0.28;0.28;;;;;;;;;;5093494;28;20050;-85
2023/07/07 14:33:58;;;;;;;0.35;0.35;;;;;;;;;;5075192;28;20016;-85
2023/07/07 14:36:26;;;;;;;0.20;0.20;;;;;;;;;;5092892;28;20039;-85
2023/07/07 14:38:54;;;;;;;0.10;0.10;;;;;;;;;;5093416;28;20027;-85
2023/07/07 14:41:20;;;;;;;0.22;0.22;;;;;;;;;;5093198;28;20427;-85
2023/07/07 14:43:46;;;;;;;3.90;0.80;;;;;;;;;;5093298;28;20480;-85
2023/07/07 14:46:19;;;;;;;0.40;0.40;;;;;;;;;;5093166;28;20077;-85
2023/07/07 14:48:49;;;;;;;0.70;0.38;;;;;;;;;;5093179;28;20059;-85
2023/07/07 14:51:16;;;;;;;0.20;0.20;;;;;;;;;;5092719;28;20098;-85
2023/07/07 14:53:42;;;;;;;0.65;0.65;;;;;;;;;;5093323;28;20094;-86